sensor_id;sensor_type;location;lat;lon;timestamp;pressure;altitude;pressure_sealevel;temperature;humidity
84511;BME280;74730;43.858;18.424;2024-01-25T00:00:07;96204.78;;;2.91;74.09
84511;BME280;74730;43.858;18.424;2024-01-25T00:02:33;96173.25;;;2.92;74.07
84511;BME280;74730;43.858;18.424;2024-01-25T00:04:59;96152.28;;;2.88;73.91
84511;BME280;74730;43.858;18.424;2024-01-25T00:07:24;96129.47;;;2.96;73.65
84511;BME280;74730;43.858;18.424;2024-01-25T00:09:50;96141.84;;;3.01;74.02
84511;BME280;74730;43.858;18.424;2024-01-25T00:12:15;96176.66;;;3.02;74.46
84511;BME280;74730;43.858;18.424;2024-01-25T00:14:41;96180.56;;;3.06;74.36
84511;BME280;74730;43.858;18.424;2024-01-25T00:17:06;96192.94;;;3.10;73.33
84511;BME280;74730;43.858;18.424;2024-01-25T00:19:33;96207.34;;;3.11;73.86
84511;BME280;74730;43.858;18.424;2024-01-25T00:21:59;96233.09;;;3.08;73.41
84511;BME280;74730;43.858;18.424;2024-01-25T00:24:26;96259.84;;;3.14;73.46
84511;BME280;74730;43.858;18.424;2024-01-25T00:26:51;96273.88;;;3.20;73.10
84511;BME280;74730;43.858;18.424;2024-01-25T00:29:17;96282.53;;;3.28;72.90
84511;BME280;74730;43.858;18.424;2024-01-25T00:31:42;96276.66;;;3.37;71.68
84511;BME280;74730;43.858;18.424;2024-01-25T00:34:08;96280.50;;;3.32;71.67
84511;BME280;74730;43.858;18.424;2024-01-25T00:36:34;96288.00;;;3.24;72.13
84511;BME280;74730;43.858;18.424;2024-01-25T00:38:59;96281.00;;;3.26;73.16
84511;BME280;74730;43.858;18.424;2024-01-25T00:41:25;96278.34;;;3.27;72.74
84511;BME280;74730;43.858;18.424;2024-01-25T00:43:52;96280.47;;;3.22;72.45
84511;BME280;74730;43.858;18.424;2024-01-25T00:46:18;96259.22;;;3.22;71.62
84511;BME280;74730;43.858;18.424;2024-01-25T00:48:44;96258.84;;;3.26;71.99
84511;BME280;74730;43.858;18.424;2024-01-25T00:51:14;96264.31;;;3.22;72.14
84511;BME280;74730;43.858;18.424;2024-01-25T00:53:41;96267.50;;;3.14;73.35
84511;BME280;74730;43.858;18.424;2024-01-25T00:56:07;96274.25;;;3.15;73.32
84511;BME280;74730;43.858;18.424;2024-01-25T00:58:33;96262.16;;;3.17;73.40
84511;BME280;74730;43.858;18.424;2024-01-25T01:00:58;96257.75;;;3.19;73.51
84511;BME280;74730;43.858;18.424;2024-01-25T01:03:24;96260.03;;;3.22;73.28
84511;BME280;74730;43.858;18.424;2024-01-25T01:05:50;96248.91;;;3.23;73.43
84511;BME280;74730;43.858;18.424;2024-01-25T01:08:16;96236.00;;;3.25;72.95
84511;BME280;74730;43.858;18.424;2024-01-25T01:10:41;96254.44;;;3.28;72.87
84511;BME280;74730;43.858;18.424;2024-01-25T01:13:07;96263.72;;;3.29;72.89
84511;BME280;74730;43.858;18.424;2024-01-25T01:15:32;96269.19;;;3.25;72.06
84511;BME280;74730;43.858;18.424;2024-01-25T01:17:58;96266.22;;;3.20;72.49
84511;BME280;74730;43.858;18.424;2024-01-25T01:20:23;96266.81;;;3.12;72.97
84511;BME280;74730;43.858;18.424;2024-01-25T01:22:49;96282.09;;;3.02;72.79
84511;BME280;74730;43.858;18.424;2024-01-25T01:25:16;96276.13;;;2.92;73.33
84511;BME280;74730;43.858;18.424;2024-01-25T01:27:41;96265.09;;;2.92;72.86
84511;BME280;74730;43.858;18.424;2024-01-25T01:30:07;96254.00;;;2.82;73.14
84511;BME280;74730;43.858;18.424;2024-01-25T01:32:33;96243.53;;;2.64;74.37
84511;BME280;74730;43.858;18.424;2024-01-25T01:34:59;96242.53;;;2.55;74.96
84511;BME280;74730;43.858;18.424;2024-01-25T01:37:25;96253.94;;;2.51;74.89
84511;BME280;74730;43.858;18.424;2024-01-25T01:39:50;96261.44;;;2.53;74.61
84511;BME280;74730;43.858;18.424;2024-01-25T01:42:17;96252.28;;;2.50;75.20
84511;BME280;74730;43.858;18.424;2024-01-25T01:44:43;96247.66;;;2.55;75.15
84511;BME280;74730;43.858;18.424;2024-01-25T01:47:08;96238.19;;;2.46;74.99
84511;BME280;74730;43.858;18.424;2024-01-25T01:49:34;96213.34;;;2.48;75.90
84511;BME280;74730;43.858;18.424;2024-01-25T01:52:01;96209.75;;;2.51;75.82
84511;BME280;74730;43.858;18.424;2024-01-25T01:54:27;96209.88;;;2.49;75.46
84511;BME280;74730;43.858;18.424;2024-01-25T01:56:53;96212.41;;;2.49;76.03
84511;BME280;74730;43.858;18.424;2024-01-25T01:59:19;96218.59;;;2.47;75.21
84511;BME280;74730;43.858;18.424;2024-01-25T02:01:46;96229.34;;;2.50;75.71
84511;BME280;74730;43.858;18.424;2024-01-25T02:04:11;96251.00;;;2.56;75.69
84511;BME280;74730;43.858;18.424;2024-01-25T02:06:37;96263.25;;;2.62;76.11
84511;BME280;74730;43.858;18.424;2024-01-25T02:09:02;96259.84;;;2.73;75.89
84511;BME280;74730;43.858;18.424;2024-01-25T02:11:29;96279.78;;;2.79;75.25
84511;BME280;74730;43.858;18.424;2024-01-25T02:13:55;96292.66;;;2.77;74.85
84511;BME280;74730;43.858;18.424;2024-01-25T02:16:21;96299.66;;;2.85;74.23
84511;BME280;74730;43.858;18.424;2024-01-25T02:18:47;96311.13;;;2.90;74.64
84511;BME280;74730;43.858;18.424;2024-01-25T02:21:13;96330.97;;;2.98;74.57
84511;BME280;74730;43.858;18.424;2024-01-25T02:23:39;96332.06;;;3.05;73.93
84511;BME280;74730;43.858;18.424;2024-01-25T02:26:04;96321.22;;;3.12;73.50
84511;BME280;74730;43.858;18.424;2024-01-25T02:28:30;96310.53;;;2.98;73.44
84511;BME280;74730;43.858;18.424;2024-01-25T02:30:56;96310.09;;;2.93;73.68
84511;BME280;74730;43.858;18.424;2024-01-25T02:33:21;96311.13;;;2.90;74.12
84511;BME280;74730;43.858;18.424;2024-01-25T02:35:47;96297.00;;;2.86;73.93
84511;BME280;74730;43.858;18.424;2024-01-25T02:38:12;96290.16;;;2.87;74.18
84511;BME280;74730;43.858;18.424;2024-01-25T02:40:38;96295.53;;;2.84;74.48
84511;BME280;74730;43.858;18.424;2024-01-25T02:43:04;96301.50;;;2.94;74.63
84511;BME280;74730;43.858;18.424;2024-01-25T02:45:29;96302.25;;;3.05;73.89
84511;BME280;74730;43.858;18.424;2024-01-25T02:47:58;96290.53;;;3.03;74.21
84511;BME280;74730;43.858;18.424;2024-01-25T02:50:23;96291.59;;;3.00;74.29
84511;BME280;74730;43.858;18.424;2024-01-25T02:52:50;96293.09;;;3.03;74.85
84511;BME280;74730;43.858;18.424;2024-01-25T02:55:19;96309.81;;;3.07;74.51
84511;BME280;74730;43.858;18.424;2024-01-25T02:57:44;96308.63;;;3.11;74.12
84511;BME280;74730;43.858;18.424;2024-01-25T03:00:10;96311.84;;;3.13;74.42
84511;BME280;74730;43.858;18.424;2024-01-25T03:02:36;96300.75;;;3.24;74.69
84511;BME280;74730;43.858;18.424;2024-01-25T03:05:02;96290.28;;;3.27;74.18
84511;BME280;74730;43.858;18.424;2024-01-25T03:07:27;96287.41;;;3.41;73.58
84511;BME280;74730;43.858;18.424;2024-01-25T03:09:54;96298.50;;;3.30;73.66
84511;BME280;74730;43.858;18.424;2024-01-25T03:12:19;96311.53;;;3.27;74.36
84511;BME280;74730;43.858;18.424;2024-01-25T03:14:45;96335.44;;;3.26;73.89
84511;BME280;74730;43.858;18.424;2024-01-25T03:17:11;96341.88;;;3.21;74.25
84511;BME280;74730;43.858;18.424;2024-01-25T03:19:37;96346.97;;;3.21;74.65
84511;BME280;74730;43.858;18.424;2024-01-25T03:22:03;96349.53;;;3.21;74.62
84511;BME280;74730;43.858;18.424;2024-01-25T03:24:29;96354.50;;;3.22;74.23
84511;BME280;74730;43.858;18.424;2024-01-25T03:26:54;96359.94;;;3.29;74.33
84511;BME280;74730;43.858;18.424;2024-01-25T03:29:20;96368.44;;;3.18;74.47
84511;BME280;74730;43.858;18.424;2024-01-25T03:31:45;96372.16;;;3.14;74.92
84511;BME280;74730;43.858;18.424;2024-01-25T03:34:11;96365.00;;;3.08;74.73
84511;BME280;74730;43.858;18.424;2024-01-25T03:36:40;96346.56;;;3.04;75.10
84511;BME280;74730;43.858;18.424;2024-01-25T03:39:06;96338.72;;;2.96;76.36
84511;BME280;74730;43.858;18.424;2024-01-25T03:41:32;96265.94;;;2.81;75.96
84511;BME280;74730;43.858;18.424;2024-01-25T03:43:58;96207.59;;;2.88;76.87
84511;BME280;74730;43.858;18.424;2024-01-25T03:46:23;96222.09;;;2.87;77.31
84511;BME280;74730;43.858;18.424;2024-01-25T03:48:49;96243.31;;;2.88;77.06
84511;BME280;74730;43.858;18.424;2024-01-25T03:51:15;96240.13;;;2.95;76.99
84511;BME280;74730;43.858;18.424;2024-01-25T03:53:41;96217.59;;;3.00;76.46
84511;BME280;74730;43.858;18.424;2024-01-25T03:56:11;96219.50;;;3.08;76.86
84511;BME280;74730;43.858;18.424;2024-01-25T03:58:38;96245.47;;;3.13;75.93
84511;BME280;74730;43.858;18.424;2024-01-25T04:01:03;96230.78;;;3.05;75.75
84511;BME280;74730;43.858;18.424;2024-01-25T04:03:29;96233.28;;;2.96;75.71
84511;BME280;74730;43.858;18.424;2024-01-25T04:05:55;96244.13;;;2.88;76.22
84511;BME280;74730;43.858;18.424;2024-01-25T04:08:20;96263.84;;;2.86;76.60
84511;BME280;74730;43.858;18.424;2024-01-25T04:10:46;96255.94;;;2.89;76.19
84511;BME280;74730;43.858;18.424;2024-01-25T04:13:11;96266.19;;;2.99;76.03
84511;BME280;74730;43.858;18.424;2024-01-25T04:15:37;96260.88;;;3.02;76.21
84511;BME280;74730;43.858;18.424;2024-01-25T04:18:03;96270.56;;;3.08;75.56
84511;BME280;74730;43.858;18.424;2024-01-25T04:20:28;96276.19;;;3.02;75.60
84511;BME280;74730;43.858;18.424;2024-01-25T04:22:54;96270.63;;;2.97;75.50
84511;BME280;74730;43.858;18.424;2024-01-25T04:25:19;96273.69;;;2.91;75.69
84511;BME280;74730;43.858;18.424;2024-01-25T04:27:45;96284.50;;;2.83;75.65
84511;BME280;74730;43.858;18.424;2024-01-25T04:30:11;96313.75;;;2.79;75.95
84511;BME280;74730;43.858;18.424;2024-01-25T04:32:36;96331.44;;;2.92;76.38
84511;BME280;74730;43.858;18.424;2024-01-25T04:35:02;96308.72;;;3.09;75.30
84511;BME280;74730;43.858;18.424;2024-01-25T04:37:28;96297.97;;;3.06;75.50
84511;BME280;74730;43.858;18.424;2024-01-25T04:39:53;96297.00;;;2.86;75.89
84511;BME280;74730;43.858;18.424;2024-01-25T04:42:19;96294.06;;;2.70;77.45
84511;BME280;74730;43.858;18.424;2024-01-25T04:44:44;96296.53;;;2.60;77.57
84511;BME280;74730;43.858;18.424;2024-01-25T04:47:10;96276.63;;;2.54;77.95
84511;BME280;74730;43.858;18.424;2024-01-25T04:49:36;96262.25;;;2.53;78.51
84511;BME280;74730;43.858;18.424;2024-01-25T04:52:02;96279.19;;;2.43;78.80
84511;BME280;74730;43.858;18.424;2024-01-25T04:54:27;96290.09;;;2.45;79.27
84511;BME280;74730;43.858;18.424;2024-01-25T04:56:53;96278.72;;;2.49;79.34
84511;BME280;74730;43.858;18.424;2024-01-25T04:59:18;96271.06;;;2.49;79.19
84511;BME280;74730;43.858;18.424;2024-01-25T05:01:44;96304.22;;;2.49;79.31
84511;BME280;74730;43.858;18.424;2024-01-25T05:04:10;96317.41;;;2.54;78.94
84511;BME280;74730;43.858;18.424;2024-01-25T05:06:35;96295.84;;;2.58;79.63
84511;BME280;74730;43.858;18.424;2024-01-25T05:09:02;96298.59;;;2.66;79.60
84511;BME280;74730;43.858;18.424;2024-01-25T05:11:28;96305.41;;;2.77;79.09
84511;BME280;74730;43.858;18.424;2024-01-25T05:13:54;96298.09;;;2.84;78.65
84511;BME280;74730;43.858;18.424;2024-01-25T05:16:19;96307.78;;;2.90;78.66
84511;BME280;74730;43.858;18.424;2024-01-25T05:18:45;96325.16;;;2.96;78.64
84511;BME280;74730;43.858;18.424;2024-01-25T05:21:10;96333.13;;;3.02;78.20
84511;BME280;74730;43.858;18.424;2024-01-25T05:23:36;96329.69;;;3.13;78.11
84511;BME280;74730;43.858;18.424;2024-01-25T05:26:01;96337.69;;;3.20;77.49
84511;BME280;74730;43.858;18.424;2024-01-25T05:28:27;96344.84;;;3.26;76.69
84511;BME280;74730;43.858;18.424;2024-01-25T05:30:53;96342.16;;;3.27;76.88
84511;BME280;74730;43.858;18.424;2024-01-25T05:33:18;96343.31;;;3.34;76.40
84511;BME280;74730;43.858;18.424;2024-01-25T05:35:44;96365.09;;;3.38;76.23
84511;BME280;74730;43.858;18.424;2024-01-25T05:38:09;96348.72;;;3.41;75.63
84511;BME280;74730;43.858;18.424;2024-01-25T05:40:35;96345.22;;;3.42;76.09
84511;BME280;74730;43.858;18.424;2024-01-25T05:43:00;96350.88;;;3.45;75.83
84511;BME280;74730;43.858;18.424;2024-01-25T05:45:26;96347.41;;;3.46;75.61
84511;BME280;74730;43.858;18.424;2024-01-25T05:47:52;96346.69;;;3.44;75.95
84511;BME280;74730;43.858;18.424;2024-01-25T05:50:18;96324.41;;;3.46;75.86
84511;BME280;74730;43.858;18.424;2024-01-25T05:52:43;96342.09;;;3.59;75.70
84511;BME280;74730;43.858;18.424;2024-01-25T05:55:09;96339.53;;;3.59;74.95
84511;BME280;74730;43.858;18.424;2024-01-25T05:57:36;96347.91;;;3.61;75.45
84511;BME280;74730;43.858;18.424;2024-01-25T06:00:02;96338.72;;;3.58;75.10
84511;BME280;74730;43.858;18.424;2024-01-25T06:02:33;96335.25;;;3.60;75.59
84511;BME280;74730;43.858;18.424;2024-01-25T06:04:59;96349.25;;;3.65;76.03
84511;BME280;74730;43.858;18.424;2024-01-25T06:07:26;96356.09;;;3.65;75.24
84511;BME280;74730;43.858;18.424;2024-01-25T06:09:52;96348.19;;;3.68;74.56
84511;BME280;74730;43.858;18.424;2024-01-25T06:12:18;96336.53;;;3.75;74.58
84511;BME280;74730;43.858;18.424;2024-01-25T06:14:43;96338.22;;;3.65;74.52
84511;BME280;74730;43.858;18.424;2024-01-25T06:17:09;96342.34;;;3.56;74.98
84511;BME280;74730;43.858;18.424;2024-01-25T06:19:34;96339.47;;;3.49;75.53
84511;BME280;74730;43.858;18.424;2024-01-25T06:22:00;96333.94;;;3.44;75.88
84511;BME280;74730;43.858;18.424;2024-01-25T06:24:26;96345.50;;;3.48;76.08
84511;BME280;74730;43.858;18.424;2024-01-25T06:26:53;96356.81;;;3.46;75.84
84511;BME280;74730;43.858;18.424;2024-01-25T06:29:19;96366.75;;;3.49;76.23
84511;BME280;74730;43.858;18.424;2024-01-25T06:31:45;96362.91;;;3.54;76.13
84511;BME280;74730;43.858;18.424;2024-01-25T06:34:11;96374.09;;;3.63;75.90
84511;BME280;74730;43.858;18.424;2024-01-25T06:36:37;96371.44;;;3.65;75.96
84511;BME280;74730;43.858;18.424;2024-01-25T06:39:03;96369.56;;;3.67;75.64
84511;BME280;74730;43.858;18.424;2024-01-25T06:41:30;96369.81;;;3.64;75.85
84511;BME280;74730;43.858;18.424;2024-01-25T06:43:55;96371.31;;;3.66;75.82
84511;BME280;74730;43.858;18.424;2024-01-25T06:46:21;96371.44;;;3.65;75.71
84511;BME280;74730;43.858;18.424;2024-01-25T06:48:47;96368.78;;;3.66;75.94
84511;BME280;74730;43.858;18.424;2024-01-25T06:51:12;96368.50;;;3.69;74.90
84511;BME280;74730;43.858;18.424;2024-01-25T06:53:39;96382.22;;;3.68;75.09
84511;BME280;74730;43.858;18.424;2024-01-25T06:56:05;96383.66;;;3.61;75.31
84511;BME280;74730;43.858;18.424;2024-01-25T06:58:32;96378.16;;;3.66;75.67
84511;BME280;74730;43.858;18.424;2024-01-25T07:00:57;96357.91;;;3.74;74.71
84511;BME280;74730;43.858;18.424;2024-01-25T07:03:23;96362.53;;;3.80;74.23
84511;BME280;74730;43.858;18.424;2024-01-25T07:05:49;96368.78;;;3.66;74.74
84511;BME280;74730;43.858;18.424;2024-01-25T07:08:14;96378.41;;;3.63;75.44
84511;BME280;74730;43.858;18.424;2024-01-25T07:10:41;96385.41;;;3.61;75.34
84511;BME280;74730;43.858;18.424;2024-01-25T07:13:07;96379.84;;;3.55;75.88
84511;BME280;74730;43.858;18.424;2024-01-25T07:15:33;96379.38;;;3.62;75.68
84511;BME280;74730;43.858;18.424;2024-01-25T07:17:58;96387.63;;;3.75;74.83
84511;BME280;74730;43.858;18.424;2024-01-25T07:20:24;96382.25;;;3.78;75.00
84511;BME280;74730;43.858;18.424;2024-01-25T07:22:49;96382.09;;;3.70;75.59
84511;BME280;74730;43.858;18.424;2024-01-25T07:25:15;96389.16;;;3.56;75.57
84511;BME280;74730;43.858;18.424;2024-01-25T07:27:45;96382.41;;;3.55;76.26
84511;BME280;74730;43.858;18.424;2024-01-25T07:30:11;96372.25;;;3.65;76.32
84511;BME280;74730;43.858;18.424;2024-01-25T07:32:37;96380.41;;;3.80;75.64
84511;BME280;74730;43.858;18.424;2024-01-25T07:35:04;96380.69;;;3.86;75.33
84511;BME280;74730;43.858;18.424;2024-01-25T07:37:30;96371.22;;;3.98;74.68
84511;BME280;74730;43.858;18.424;2024-01-25T07:39:56;96362.19;;;3.94;74.38
84511;BME280;74730;43.858;18.424;2024-01-25T07:42:21;96361.06;;;3.87;74.87
84511;BME280;74730;43.858;18.424;2024-01-25T07:44:47;96362.13;;;3.84;75.35
84511;BME280;74730;43.858;18.424;2024-01-25T07:47:13;96360.78;;;3.80;75.38
84511;BME280;74730;43.858;18.424;2024-01-25T07:49:40;96359.97;;;3.80;75.49
84511;BME280;74730;43.858;18.424;2024-01-25T07:52:06;96359.44;;;3.86;75.91
84511;BME280;74730;43.858;18.424;2024-01-25T07:54:31;96364.84;;;3.92;76.02
84511;BME280;74730;43.858;18.424;2024-01-25T07:56:57;96381.44;;;3.98;76.28
84511;BME280;74730;43.858;18.424;2024-01-25T07:59:22;96377.81;;;4.00;75.52
84511;BME280;74730;43.858;18.424;2024-01-25T08:01:48;96380.41;;;4.10;75.28
84511;BME280;74730;43.858;18.424;2024-01-25T08:04:14;96396.06;;;4.17;75.25
84511;BME280;74730;43.858;18.424;2024-01-25T08:06:39;96384.34;;;4.24;75.33
84511;BME280;74730;43.858;18.424;2024-01-25T08:09:05;96388.53;;;4.25;74.70
84511;BME280;74730;43.858;18.424;2024-01-25T08:11:30;96386.78;;;4.25;74.44
84511;BME280;74730;43.858;18.424;2024-01-25T08:13:56;96393.38;;;4.28;74.25
84511;BME280;74730;43.858;18.424;2024-01-25T08:16:22;96393.50;;;4.26;74.77
84511;BME280;74730;43.858;18.424;2024-01-25T08:18:48;96390.72;;;4.29;74.60
84511;BME280;74730;43.858;18.424;2024-01-25T08:21:14;96395.28;;;4.26;75.16
84511;BME280;74730;43.858;18.424;2024-01-25T08:23:40;96394.63;;;4.33;74.68
84511;BME280;74730;43.858;18.424;2024-01-25T08:26:06;96394.50;;;4.35;74.35
84511;BME280;74730;43.858;18.424;2024-01-25T08:28:42;96384.13;;;4.36;74.37
84511;BME280;74730;43.858;18.424;2024-01-25T08:31:11;96383.31;;;4.36;74.70
84511;BME280;74730;43.858;18.424;2024-01-25T08:33:38;96385.25;;;4.43;74.13
84511;BME280;74730;43.858;18.424;2024-01-25T08:36:07;96384.16;;;4.46;75.42
84511;BME280;74730;43.858;18.424;2024-01-25T08:38:33;96375.84;;;4.54;75.14
84511;BME280;74730;43.858;18.424;2024-01-25T08:40:58;96376.00;;;4.62;74.25
84511;BME280;74730;43.858;18.424;2024-01-25T08:43:24;96369.94;;;4.82;74.58
84511;BME280;74730;43.858;18.424;2024-01-25T08:45:49;96378.06;;;5.06;73.13
84511;BME280;74730;43.858;18.424;2024-01-25T08:48:15;96376.44;;;5.15;73.09
84511;BME280;74730;43.858;18.424;2024-01-25T08:50:41;96381.44;;;5.16;72.22
84511;BME280;74730;43.858;18.424;2024-01-25T08:53:06;96379.94;;;5.14;71.56
84511;BME280;74730;43.858;18.424;2024-01-25T08:55:32;96382.78;;;5.01;72.15
84511;BME280;74730;43.858;18.424;2024-01-25T08:57:57;96394.09;;;4.89;73.03
84511;BME280;74730;43.858;18.424;2024-01-25T09:00:23;96396.22;;;4.84;73.66
84511;BME280;74730;43.858;18.424;2024-01-25T09:02:49;96394.47;;;4.84;73.43
84511;BME280;74730;43.858;18.424;2024-01-25T09:05:14;96409.16;;;4.82;73.81
84511;BME280;74730;43.858;18.424;2024-01-25T09:07:40;96393.56;;;4.85;73.80
84511;BME280;74730;43.858;18.424;2024-01-25T09:10:07;96401.06;;;4.87;73.15
84511;BME280;74730;43.858;18.424;2024-01-25T09:12:34;96395.84;;;4.88;73.45
84511;BME280;74730;43.858;18.424;2024-01-25T09:15:01;96396.25;;;4.94;73.36
84511;BME280;74730;43.858;18.424;2024-01-25T09:17:27;96393.81;;;4.92;73.05
84511;BME280;74730;43.858;18.424;2024-01-25T09:19:52;96390.59;;;4.90;73.41
84511;BME280;74730;43.858;18.424;2024-01-25T09:22:19;96398.13;;;5.01;73.88
84511;BME280;74730;43.858;18.424;2024-01-25T09:24:48;96375.50;;;5.06;73.05
84511;BME280;74730;43.858;18.424;2024-01-25T09:27:14;96362.00;;;5.23;72.25
84511;BME280;74730;43.858;18.424;2024-01-25T09:29:40;96372.41;;;5.31;71.79
84511;BME280;74730;43.858;18.424;2024-01-25T09:32:07;96366.47;;;5.31;71.68
84511;BME280;74730;43.858;18.424;2024-01-25T09:34:34;96364.44;;;5.34;71.21
84511;BME280;74730;43.858;18.424;2024-01-25T09:37:00;96378.88;;;5.26;70.81
84511;BME280;74730;43.858;18.424;2024-01-25T09:39:26;96384.81;;;5.17;70.96
84511;BME280;74730;43.858;18.424;2024-01-25T09:41:51;96382.91;;;5.09;71.78
84511;BME280;74730;43.858;18.424;2024-01-25T09:44:17;96377.25;;;5.06;72.23
84511;BME280;74730;43.858;18.424;2024-01-25T09:46:43;96373.06;;;5.05;71.87
84511;BME280;74730;43.858;18.424;2024-01-25T09:49:10;96367.13;;;5.04;72.50
84511;BME280;74730;43.858;18.424;2024-01-25T09:51:40;96352.84;;;5.02;71.93
84511;BME280;74730;43.858;18.424;2024-01-25T09:54:06;96366.19;;;4.76;73.34
84511;BME280;74730;43.858;18.424;2024-01-25T09:56:33;96365.78;;;4.71;73.72
84511;BME280;74730;43.858;18.424;2024-01-25T09:58:59;96350.44;;;4.81;74.04
84511;BME280;74730;43.858;18.424;2024-01-25T10:01:26;96357.84;;;4.84;73.98
84511;BME280;74730;43.858;18.424;2024-01-25T10:03:52;96345.88;;;4.94;73.73
84511;BME280;74730;43.858;18.424;2024-01-25T10:06:18;96335.75;;;5.12;72.35
84511;BME280;74730;43.858;18.424;2024-01-25T10:08:45;96335.88;;;5.29;71.84
84511;BME280;74730;43.858;18.424;2024-01-25T10:11:10;96337.47;;;5.40;71.56
84511;BME280;74730;43.858;18.424;2024-01-25T10:13:47;96332.53;;;5.75;71.00
84511;BME280;74730;43.858;18.424;2024-01-25T10:16:14;96312.38;;;6.00;70.10
84511;BME280;74730;43.858;18.424;2024-01-25T10:18:41;96306.28;;;6.01;69.77
84511;BME280;74730;43.858;18.424;2024-01-25T10:21:09;96304.03;;;5.88;69.48
84511;BME280;74730;43.858;18.424;2024-01-25T10:23:35;96300.06;;;6.03;69.43
84511;BME280;74730;43.858;18.424;2024-01-25T10:26:00;96290.56;;;6.41;69.19
84511;BME280;74730;43.858;18.424;2024-01-25T10:28:26;96290.19;;;6.36;69.03
84511;BME280;74730;43.858;18.424;2024-01-25T10:30:56;96284.63;;;6.40;68.39
84511;BME280;74730;43.858;18.424;2024-01-25T10:33:24;96286.75;;;6.45;68.85
84511;BME280;74730;43.858;18.424;2024-01-25T10:35:53;96293.44;;;6.73;68.25
84511;BME280;74730;43.858;18.424;2024-01-25T10:38:22;96291.00;;;6.89;67.97
84511;BME280;74730;43.858;18.424;2024-01-25T10:40:49;96284.63;;;6.76;68.00
84511;BME280;74730;43.858;18.424;2024-01-25T10:43:15;96278.63;;;6.85;67.84
84511;BME280;74730;43.858;18.424;2024-01-25T10:45:41;96265.13;;;6.83;68.19
84511;BME280;74730;43.858;18.424;2024-01-25T10:48:07;96258.66;;;6.96;67.13
84511;BME280;74730;43.858;18.424;2024-01-25T10:50:33;96249.72;;;6.83;67.82
84511;BME280;74730;43.858;18.424;2024-01-25T10:53:00;96249.25;;;7.05;67.55
84511;BME280;74730;43.858;18.424;2024-01-25T10:55:26;96242.31;;;7.23;67.24
84511;BME280;74730;43.858;18.424;2024-01-25T10:57:52;96253.09;;;7.27;66.67
84511;BME280;74730;43.858;18.424;2024-01-25T11:00:18;96244.47;;;7.36;67.43
84511;BME280;74730;43.858;18.424;2024-01-25T11:02:45;96256.19;;;7.12;66.91
84511;BME280;74730;43.858;18.424;2024-01-25T11:05:12;96265.84;;;6.93;68.84
84511;BME280;74730;43.858;18.424;2024-01-25T11:07:47;96265.16;;;7.08;68.98
84511;BME280;74730;43.858;18.424;2024-01-25T11:10:18;96269.22;;;7.37;67.75
84511;BME280;74730;43.858;18.424;2024-01-25T11:12:51;96258.63;;;7.40;67.40
84511;BME280;74730;43.858;18.424;2024-01-25T11:15:22;96265.63;;;7.30;67.11
84511;BME280;74730;43.858;18.424;2024-01-25T11:17:53;96267.19;;;7.23;68.58
84511;BME280;74730;43.858;18.424;2024-01-25T11:20:27;96257.91;;;7.04;68.35
84511;BME280;74730;43.858;18.424;2024-01-25T11:23:06;96239.47;;;7.08;68.24
84511;BME280;74730;43.858;18.424;2024-01-25T11:25:36;96223.69;;;7.29;66.82
84511;BME280;74730;43.858;18.424;2024-01-25T11:28:03;96220.53;;;7.35;65.70
84511;BME280;74730;43.858;18.424;2024-01-25T11:30:30;96207.22;;;7.40;65.82
84511;BME280;74730;43.858;18.424;2024-01-25T11:32:56;96178.13;;;7.65;64.96
84511;BME280;74730;43.858;18.424;2024-01-25T11:35:22;96187.97;;;7.78;64.24
84511;BME280;74730;43.858;18.424;2024-01-25T11:37:49;96182.03;;;7.85;64.10
84511;BME280;74730;43.858;18.424;2024-01-25T11:40:15;96190.06;;;7.74;63.68
84511;BME280;74730;43.858;18.424;2024-01-25T11:42:42;96176.84;;;7.69;63.85
84511;BME280;74730;43.858;18.424;2024-01-25T11:45:10;96177.94;;;7.67;63.91
84511;BME280;74730;43.858;18.424;2024-01-25T11:47:37;96172.34;;;7.71;63.78
84511;BME280;74730;43.858;18.424;2024-01-25T11:50:04;96166.59;;;7.85;63.68
84511;BME280;74730;43.858;18.424;2024-01-25T11:52:30;96155.34;;;7.86;64.40
84511;BME280;74730;43.858;18.424;2024-01-25T11:55:05;96154.41;;;7.95;63.97
84511;BME280;74730;43.858;18.424;2024-01-25T11:57:33;96143.66;;;8.08;63.74
84511;BME280;74730;43.858;18.424;2024-01-25T12:00:00;96155.91;;;8.14;62.85
84511;BME280;74730;43.858;18.424;2024-01-25T12:02:26;96165.06;;;8.17;63.82
84511;BME280;74730;43.858;18.424;2024-01-25T12:04:52;96180.03;;;8.13;64.46
84511;BME280;74730;43.858;18.424;2024-01-25T12:07:20;96164.91;;;8.10;65.45
84511;BME280;74730;43.858;18.424;2024-01-25T12:10:01;96149.81;;;8.15;65.17
84511;BME280;74730;43.858;18.424;2024-01-25T12:12:28;96151.91;;;8.20;65.39
84511;BME280;74730;43.858;18.424;2024-01-25T12:15:01;96171.19;;;8.24;65.58
84511;BME280;74730;43.858;18.424;2024-01-25T12:17:30;96163.50;;;8.32;65.47
84511;BME280;74730;43.858;18.424;2024-01-25T12:19:59;96163.50;;;8.32;65.48
84511;BME280;74730;43.858;18.424;2024-01-25T12:22:28;96152.09;;;8.34;65.08
84511;BME280;74730;43.858;18.424;2024-01-25T12:24:56;96146.16;;;8.34;65.33
84511;BME280;74730;43.858;18.424;2024-01-25T12:27:22;96146.78;;;8.36;65.33
84511;BME280;74730;43.858;18.424;2024-01-25T12:29:52;96146.78;;;8.44;64.72
84511;BME280;74730;43.858;18.424;2024-01-25T12:32:21;96141.00;;;8.50;64.62
84511;BME280;74730;43.858;18.424;2024-01-25T12:34:57;96146.16;;;8.50;64.66
84511;BME280;74730;43.858;18.424;2024-01-25T12:37:23;96140.03;;;8.51;64.00
84511;BME280;74730;43.858;18.424;2024-01-25T12:39:51;96141.00;;;8.50;64.15
84511;BME280;74730;43.858;18.424;2024-01-25T12:42:18;96137.13;;;8.54;64.20
84511;BME280;74730;43.858;18.424;2024-01-25T12:44:44;96140.38;;;8.56;63.76
84511;BME280;74730;43.858;18.424;2024-01-25T12:47:11;96139.06;;;8.60;64.01
84511;BME280;74730;43.858;18.424;2024-01-25T12:49:41;96133.44;;;8.57;64.08
84511;BME280;74730;43.858;18.424;2024-01-25T12:52:12;96143.09;;;8.55;63.66
84511;BME280;74730;43.858;18.424;2024-01-25T12:54:38;96137.28;;;8.53;63.44